PAEN/ENA METAR and TAF weather

Enter ICAO airport designator
Station Type Date Time Source
PAEN METAR 2019/04/25 11:53 UTC NOAA

PAEN 251153Z AUTO 02010KT 10SM SCT090 02/M05 A3004 RMK AO2 SLP175 T00171050 10039 20017 51003 TSNO


Station Type Date Time Source
PAEN Decoded METAR 2019/04/25 11:53 UTC NOAA

KENAI MUNICIPAL AIRPORT, AK, United States (PAEN) 60-35N 151-14W 25M
Apr 25, 2019 - 07:53 AM EDT / 2019.04.25 1153 UTC
Wind: from the NNE (020 degrees) at 12 MPH (10 KT):0
Visibility: 10 mile(s):0
Sky conditions: partly cloudy
Temperature: 35.1 F (1.7 C)
Dew Point: 23.0 F (-5.0 C)
Relative Humidity: 61%
Pressure (altimeter): 30.04 in. Hg (1017 hPa)
Pressure tendency: 0.01 inches (0.3 hPa) higher than three hours ago
ob: PAEN 251153Z AUTO 02010KT 10SM SCT090 02/M05 A3004 RMK AO2 SLP175 T00171050 10039 20017 51003 TSNO
cycle: 12

Station Type Date Time Source
PAEN TAF 2019/04/25 12:30 UTC NOAA

TAF PAEN 251127Z 2512/2612 02014G21KT P6SM VCSH BKN090
FM251800 03014G20KT P6SM SCT050
FM260400 36011KT P6SM BKN100
FM260900 05006KT P6SM SKC

Example: see airport list